sensor_id;sensor_type;location;lat;lon;timestamp;temperature;humidity
70593;DHT22;58294;42.988;20.338;2022-12-13T00:01:28;102.90;2227.20
70593;DHT22;58294;42.988;20.338;2022-12-13T00:03:59;102.90;2227.20
70593;DHT22;58294;42.988;20.338;2022-12-13T00:06:25;102.90;2227.20
70593;DHT22;58294;42.988;20.338;2022-12-13T00:08:51;102.90;2227.20
70593;DHT22;58294;42.988;20.338;2022-12-13T00:11:17;102.80;2227.20
70593;DHT22;58294;42.988;20.338;2022-12-13T00:13:43;102.80;2227.20
70593;DHT22;58294;42.988;20.338;2022-12-13T00:16:16;102.90;2227.20
70593;DHT22;58294;42.988;20.338;2022-12-13T00:18:46;102.90;2227.20
70593;DHT22;58294;42.988;20.338;2022-12-13T00:21:14;102.80;2227.20
70593;DHT22;58294;42.988;20.338;2022-12-13T00:23:40;102.80;2227.20
70593;DHT22;58294;42.988;20.338;2022-12-13T00:26:10;102.80;2227.20
70593;DHT22;58294;42.988;20.338;2022-12-13T00:28:36;102.80;2227.20
70593;DHT22;58294;42.988;20.338;2022-12-13T00:31:02;102.70;2227.20
70593;DHT22;58294;42.988;20.338;2022-12-13T00:33:29;102.60;2227.20
70593;DHT22;58294;42.988;20.338;2022-12-13T00:35:55;102.50;2227.20
70593;DHT22;58294;42.988;20.338;2022-12-13T00:38:22;102.50;2227.20
70593;DHT22;58294;42.988;20.338;2022-12-13T00:40:48;102.50;2227.20
70593;DHT22;58294;42.988;20.338;2022-12-13T00:43:16;102.50;2227.20
70593;DHT22;58294;42.988;20.338;2022-12-13T00:45:41;102.50;2227.20
70593;DHT22;58294;42.988;20.338;2022-12-13T00:48:07;102.40;2227.20
70593;DHT22;58294;42.988;20.338;2022-12-13T00:50:33;102.40;2227.20
70593;DHT22;58294;42.988;20.338;2022-12-13T00:53:00;102.40;2227.20
70593;DHT22;58294;42.988;20.338;2022-12-13T00:55:26;102.40;2227.20
70593;DHT22;58294;42.988;20.338;2022-12-13T00:57:52;102.50;2227.20
70593;DHT22;58294;42.988;20.338;2022-12-13T01:00:19;102.50;2227.20
70593;DHT22;58294;42.988;20.338;2022-12-13T01:02:45;102.60;2227.20
70593;DHT22;58294;42.988;20.338;2022-12-13T01:05:12;102.60;2227.20
70593;DHT22;58294;42.988;20.338;2022-12-13T01:07:39;102.60;2227.20
70593;DHT22;58294;42.988;20.338;2022-12-13T01:10:06;102.70;2227.20
70593;DHT22;58294;42.988;20.338;2022-12-13T01:12:35;102.70;2227.20
70593;DHT22;58294;42.988;20.338;2022-12-13T01:15:01;102.70;2227.20
70593;DHT22;58294;42.988;20.338;2022-12-13T01:17:27;102.70;2227.20
70593;DHT22;58294;42.988;20.338;2022-12-13T01:19:53;102.80;2227.20
70593;DHT22;58294;42.988;20.338;2022-12-13T01:22:18;102.70;2227.20
70593;DHT22;58294;42.988;20.338;2022-12-13T01:24:44;102.60;2227.20
70593;DHT22;58294;42.988;20.338;2022-12-13T01:27:11;102.60;2227.20
70593;DHT22;58294;42.988;20.338;2022-12-13T01:29:37;102.60;2227.20
70593;DHT22;58294;42.988;20.338;2022-12-13T01:32:03;102.70;2227.20
70593;DHT22;58294;42.988;20.338;2022-12-13T01:34:28;102.70;2227.20
70593;DHT22;58294;42.988;20.338;2022-12-13T01:36:55;102.70;2227.20
70593;DHT22;58294;42.988;20.338;2022-12-13T01:39:21;102.60;2227.20
70593;DHT22;58294;42.988;20.338;2022-12-13T01:41:50;102.50;2227.20
70593;DHT22;58294;42.988;20.338;2022-12-13T01:47:41;102.40;2227.20
70593;DHT22;58294;42.988;20.338;2022-12-13T01:50:18;102.40;2227.20
70593;DHT22;58294;42.988;20.338;2022-12-13T01:52:46;77.70;2227.20
70593;DHT22;58294;42.988;20.338;2022-12-13T01:55:14;77.60;2227.20
70593;DHT22;58294;42.988;20.338;2022-12-13T01:57:43;77.60;2227.20
70593;DHT22;58294;42.988;20.338;2022-12-13T02:00:10;77.70;2227.20
70593;DHT22;58294;42.988;20.338;2022-12-13T02:02:38;102.40;2227.20
70593;DHT22;58294;42.988;20.338;2022-12-13T02:05:12;102.40;2227.20
70593;DHT22;58294;42.988;20.338;2022-12-13T02:07:41;102.40;2227.20
70593;DHT22;58294;42.988;20.338;2022-12-13T02:10:08;102.50;2227.20
70593;DHT22;58294;42.988;20.338;2022-12-13T02:12:36;102.50;2227.20
70593;DHT22;58294;42.988;20.338;2022-12-13T02:15:09;102.40;2227.20
70593;DHT22;58294;42.988;20.338;2022-12-13T02:23:36;102.40;2227.20
70593;DHT22;58294;42.988;20.338;2022-12-13T02:26:40;102.40;2227.20
70593;DHT22;58294;42.988;20.338;2022-12-13T02:39:21;77.60;2227.20
70593;DHT22;58294;42.988;20.338;2022-12-13T02:41:50;77.60;2227.20
70593;DHT22;58294;42.988;20.338;2022-12-13T02:44:23;77.50;2227.20
70593;DHT22;58294;42.988;20.338;2022-12-13T02:47:04;77.50;2227.20
70593;DHT22;58294;42.988;20.338;2022-12-13T02:49:34;77.40;2227.20
70593;DHT22;58294;42.988;20.338;2022-12-13T02:52:02;77.30;2227.20
70593;DHT22;58294;42.988;20.338;2022-12-13T02:54:30;77.30;2227.20
70593;DHT22;58294;42.988;20.338;2022-12-13T02:56:58;77.20;2227.20
70593;DHT22;58294;42.988;20.338;2022-12-13T02:59:30;77.20;2227.20
70593;DHT22;58294;42.988;20.338;2022-12-13T03:02:24;77.20;2227.20
70593;DHT22;58294;42.988;20.338;2022-12-13T03:10:28;77.30;2227.20
70593;DHT22;58294;42.988;20.338;2022-12-13T03:13:18;77.30;2227.20
70593;DHT22;58294;42.988;20.338;2022-12-13T03:16:07;77.30;2227.20
70593;DHT22;58294;42.988;20.338;2022-12-13T03:18:34;77.30;2227.20
70593;DHT22;58294;42.988;20.338;2022-12-13T03:21:05;77.40;2227.20
70593;DHT22;58294;42.988;20.338;2022-12-13T03:23:32;77.40;2227.20
70593;DHT22;58294;42.988;20.338;2022-12-13T03:26:04;77.30;2227.20
70593;DHT22;58294;42.988;20.338;2022-12-13T03:28:31;77.30;2227.20
70593;DHT22;58294;42.988;20.338;2022-12-13T03:30:57;77.30;2227.20
70593;DHT22;58294;42.988;20.338;2022-12-13T03:33:22;77.30;2227.20
70593;DHT22;58294;42.988;20.338;2022-12-13T03:35:48;77.30;2227.20
70593;DHT22;58294;42.988;20.338;2022-12-13T03:38:16;77.20;2227.20
70593;DHT22;58294;42.988;20.338;2022-12-13T03:40:42;77.30;2227.20
70593;DHT22;58294;42.988;20.338;2022-12-13T03:43:08;77.20;2227.20
70593;DHT22;58294;42.988;20.338;2022-12-13T03:45:34;77.10;2227.20
70593;DHT22;58294;42.988;20.338;2022-12-13T03:48:00;77.10;2227.20
70593;DHT22;58294;42.988;20.338;2022-12-13T03:50:25;77.10;2227.20
70593;DHT22;58294;42.988;20.338;2022-12-13T03:52:58;77.00;2227.20
70593;DHT22;58294;42.988;20.338;2022-12-13T03:55:24;77.10;2227.20
70593;DHT22;58294;42.988;20.338;2022-12-13T03:57:50;77.10;2227.20
70593;DHT22;58294;42.988;20.338;2022-12-13T04:00:15;77.20;2227.20
70593;DHT22;58294;42.988;20.338;2022-12-13T04:02:41;77.20;2227.20
70593;DHT22;58294;42.988;20.338;2022-12-13T04:05:07;77.30;2227.20
70593;DHT22;58294;42.988;20.338;2022-12-13T04:07:33;77.30;2227.20
70593;DHT22;58294;42.988;20.338;2022-12-13T04:09:59;77.20;2227.20
70593;DHT22;58294;42.988;20.338;2022-12-13T04:12:25;77.20;2227.20
70593;DHT22;58294;42.988;20.338;2022-12-13T04:15:09;77.10;2227.20
70593;DHT22;58294;42.988;20.338;2022-12-13T04:17:35;77.00;2227.20
70593;DHT22;58294;42.988;20.338;2022-12-13T04:20:00;77.00;2227.20
70593;DHT22;58294;42.988;20.338;2022-12-13T04:22:26;77.10;2227.20
70593;DHT22;58294;42.988;20.338;2022-12-13T04:24:52;77.10;2227.20
70593;DHT22;58294;42.988;20.338;2022-12-13T04:27:18;77.10;2227.20
70593;DHT22;58294;42.988;20.338;2022-12-13T04:29:43;77.20;2227.20
70593;DHT22;58294;42.988;20.338;2022-12-13T04:32:09;77.10;2227.20
70593;DHT22;58294;42.988;20.338;2022-12-13T04:34:35;77.20;2227.20
70593;DHT22;58294;42.988;20.338;2022-12-13T04:37:01;77.30;2227.20
70593;DHT22;58294;42.988;20.338;2022-12-13T04:39:26;77.30;2227.20
70593;DHT22;58294;42.988;20.338;2022-12-13T04:41:52;77.20;2227.20
70593;DHT22;58294;42.988;20.338;2022-12-13T04:44:18;77.20;2227.20
70593;DHT22;58294;42.988;20.338;2022-12-13T04:46:44;77.20;2227.20
70593;DHT22;58294;42.988;20.338;2022-12-13T04:49:10;77.10;2227.20
70593;DHT22;58294;42.988;20.338;2022-12-13T04:51:36;77.10;2227.20
70593;DHT22;58294;42.988;20.338;2022-12-13T04:54:02;77.00;2227.20
70593;DHT22;58294;42.988;20.338;2022-12-13T04:56:27;77.00;2227.20
70593;DHT22;58294;42.988;20.338;2022-12-13T04:58:53;77.00;2227.20
70593;DHT22;58294;42.988;20.338;2022-12-13T05:01:19;77.10;2227.20
70593;DHT22;58294;42.988;20.338;2022-12-13T05:03:45;77.10;2227.20
70593;DHT22;58294;42.988;20.338;2022-12-13T05:06:12;77.20;2227.20
70593;DHT22;58294;42.988;20.338;2022-12-13T05:08:39;77.30;2227.20
70593;DHT22;58294;42.988;20.338;2022-12-13T05:11:06;77.40;2227.20
70593;DHT22;58294;42.988;20.338;2022-12-13T05:13:32;77.40;2227.20
70593;DHT22;58294;42.988;20.338;2022-12-13T05:16:00;77.40;2227.20
70593;DHT22;58294;42.988;20.338;2022-12-13T05:18:27;77.40;2227.20
70593;DHT22;58294;42.988;20.338;2022-12-13T05:20:53;77.40;2227.20
70593;DHT22;58294;42.988;20.338;2022-12-13T05:23:20;77.40;2227.20
70593;DHT22;58294;42.988;20.338;2022-12-13T05:25:47;77.30;2227.20
70593;DHT22;58294;42.988;20.338;2022-12-13T05:28:13;77.30;2227.20
70593;DHT22;58294;42.988;20.338;2022-12-13T05:30:39;77.40;2227.20
70593;DHT22;58294;42.988;20.338;2022-12-13T05:33:05;77.30;2227.20
70593;DHT22;58294;42.988;20.338;2022-12-13T05:35:32;77.30;2201.60
70593;DHT22;58294;42.988;20.338;2022-12-13T05:37:58;77.20;2227.20
70593;DHT22;58294;42.988;20.338;2022-12-13T05:40:29;77.30;2227.20
70593;DHT22;58294;42.988;20.338;2022-12-13T05:42:55;77.20;2227.20
70593;DHT22;58294;42.988;20.338;2022-12-13T05:45:21;77.20;2227.20
70593;DHT22;58294;42.988;20.338;2022-12-13T05:47:47;77.20;2227.20
70593;DHT22;58294;42.988;20.338;2022-12-13T05:50:14;77.20;2227.20
70593;DHT22;58294;42.988;20.338;2022-12-13T05:52:42;77.10;2227.20
70593;DHT22;58294;42.988;20.338;2022-12-13T05:55:09;77.20;2227.20
70593;DHT22;58294;42.988;20.338;2022-12-13T05:57:35;77.20;2227.20
70593;DHT22;58294;42.988;20.338;2022-12-13T06:00:01;77.20;2227.20
70593;DHT22;58294;42.988;20.338;2022-12-13T06:02:26;77.20;2227.20
70593;DHT22;58294;42.988;20.338;2022-12-13T06:04:52;77.20;2227.20
70593;DHT22;58294;42.988;20.338;2022-12-13T06:07:18;77.20;2227.20
70593;DHT22;58294;42.988;20.338;2022-12-13T06:09:44;77.20;2227.20
70593;DHT22;58294;42.988;20.338;2022-12-13T06:12:10;77.30;2227.20
70593;DHT22;58294;42.988;20.338;2022-12-13T06:14:35;77.30;2227.20
70593;DHT22;58294;42.988;20.338;2022-12-13T06:17:01;77.30;2227.20
70593;DHT22;58294;42.988;20.338;2022-12-13T06:19:27;77.30;2227.20
70593;DHT22;58294;42.988;20.338;2022-12-13T06:21:54;77.30;2227.20
70593;DHT22;58294;42.988;20.338;2022-12-13T06:24:21;77.40;2227.20
70593;DHT22;58294;42.988;20.338;2022-12-13T06:26:48;77.30;2227.20
70593;DHT22;58294;42.988;20.338;2022-12-13T06:29:15;77.40;2227.20
70593;DHT22;58294;42.988;20.338;2022-12-13T06:31:41;77.40;2227.20
70593;DHT22;58294;42.988;20.338;2022-12-13T06:34:07;77.40;2227.20
70593;DHT22;58294;42.988;20.338;2022-12-13T06:36:33;77.40;2227.20
70593;DHT22;58294;42.988;20.338;2022-12-13T06:39:06;77.50;2227.20
70593;DHT22;58294;42.988;20.338;2022-12-13T06:41:32;77.60;2227.20
70593;DHT22;58294;42.988;20.338;2022-12-13T06:43:58;77.50;2227.20
70593;DHT22;58294;42.988;20.338;2022-12-13T06:46:25;77.60;2227.20
70593;DHT22;58294;42.988;20.338;2022-12-13T06:48:51;77.70;2227.20
70593;DHT22;58294;42.988;20.338;2022-12-13T06:51:17;77.70;2227.20
70593;DHT22;58294;42.988;20.338;2022-12-13T06:53:43;77.70;2227.20
70593;DHT22;58294;42.988;20.338;2022-12-13T06:56:11;77.70;2227.20
70593;DHT22;58294;42.988;20.338;2022-12-13T06:58:38;102.40;2227.20
70593;DHT22;58294;42.988;20.338;2022-12-13T07:01:11;102.40;2227.20
70593;DHT22;58294;42.988;20.338;2022-12-13T07:03:38;102.40;2227.20
70593;DHT22;58294;42.988;20.338;2022-12-13T07:06:07;102.40;2227.20
70593;DHT22;58294;42.988;20.338;2022-12-13T07:08:33;102.50;2227.20
70593;DHT22;58294;42.988;20.338;2022-12-13T07:11:01;102.50;2227.20
70593;DHT22;58294;42.988;20.338;2022-12-13T07:13:27;102.50;2201.60
70593;DHT22;58294;42.988;20.338;2022-12-13T07:15:53;102.50;2227.20
70593;DHT22;58294;42.988;20.338;2022-12-13T07:18:18;102.50;2201.60
70593;DHT22;58294;42.988;20.338;2022-12-13T07:20:44;102.40;2176.00
70593;DHT22;58294;42.988;20.338;2022-12-13T07:23:11;102.40;2201.60
70593;DHT22;58294;42.988;20.338;2022-12-13T07:25:36;102.40;2227.20
70593;DHT22;58294;42.988;20.338;2022-12-13T07:28:05;102.50;2227.20
70593;DHT22;58294;42.988;20.338;2022-12-13T07:30:36;102.60;2227.20
70593;DHT22;58294;42.988;20.338;2022-12-13T07:33:03;102.70;2227.20
70593;DHT22;58294;42.988;20.338;2022-12-13T07:35:30;102.60;2124.80
70593;DHT22;58294;42.988;20.338;2022-12-13T07:37:57;102.50;2201.60
70593;DHT22;58294;42.988;20.338;2022-12-13T07:40:23;102.50;2201.60
70593;DHT22;58294;42.988;20.338;2022-12-13T07:42:50;102.50;2227.20
70593;DHT22;58294;42.988;20.338;2022-12-13T07:45:16;102.50;2201.60
70593;DHT22;58294;42.988;20.338;2022-12-13T07:47:42;102.50;2201.60
70593;DHT22;58294;42.988;20.338;2022-12-13T07:50:09;102.50;2227.20
70593;DHT22;58294;42.988;20.338;2022-12-13T07:52:36;102.60;2227.20
70593;DHT22;58294;42.988;20.338;2022-12-13T07:55:01;102.60;2201.60
70593;DHT22;58294;42.988;20.338;2022-12-13T07:57:29;102.60;2227.20
70593;DHT22;58294;42.988;20.338;2022-12-13T07:59:54;102.60;2227.20
70593;DHT22;58294;42.988;20.338;2022-12-13T08:02:20;102.60;2201.60
70593;DHT22;58294;42.988;20.338;2022-12-13T08:04:46;102.70;2201.60
70593;DHT22;58294;42.988;20.338;2022-12-13T08:07:12;102.60;2227.20
70593;DHT22;58294;42.988;20.338;2022-12-13T08:09:38;102.60;2150.40
70593;DHT22;58294;42.988;20.338;2022-12-13T08:12:04;102.60;2150.40
70593;DHT22;58294;42.988;20.338;2022-12-13T08:14:30;102.60;2201.60
70593;DHT22;58294;42.988;20.338;2022-12-13T08:16:56;102.60;2176.00
70593;DHT22;58294;42.988;20.338;2022-12-13T08:19:22;102.60;2150.40
70593;DHT22;58294;42.988;20.338;2022-12-13T08:21:48;102.60;2150.40
70593;DHT22;58294;42.988;20.338;2022-12-13T08:24:17;102.60;2227.20
70593;DHT22;58294;42.988;20.338;2022-12-13T08:26:43;102.60;2201.60
70593;DHT22;58294;42.988;20.338;2022-12-13T08:29:11;102.70;2227.20
70593;DHT22;58294;42.988;20.338;2022-12-13T08:31:37;102.80;2227.20
70593;DHT22;58294;42.988;20.338;2022-12-13T08:34:03;102.90;2227.20
70593;DHT22;58294;42.988;20.338;2022-12-13T08:36:28;102.90;2227.20
70593;DHT22;58294;42.988;20.338;2022-12-13T08:38:55;103.00;2227.20
70593;DHT22;58294;42.988;20.338;2022-12-13T08:41:22;103.00;2201.60
70593;DHT22;58294;42.988;20.338;2022-12-13T08:43:48;103.10;2201.60
70593;DHT22;58294;42.988;20.338;2022-12-13T08:46:14;103.10;2227.20
70593;DHT22;58294;42.988;20.338;2022-12-13T08:48:40;103.20;2201.60
70593;DHT22;58294;42.988;20.338;2022-12-13T08:51:10;103.20;2124.80
70593;DHT22;58294;42.988;20.338;2022-12-13T08:53:37;103.10;2073.60
70593;DHT22;58294;42.988;20.338;2022-12-13T08:56:06;103.00;2150.40
70593;DHT22;58294;42.988;20.338;2022-12-13T08:58:32;103.00;2201.60
70593;DHT22;58294;42.988;20.338;2022-12-13T09:01:03;103.10;2227.20
70593;DHT22;58294;42.988;20.338;2022-12-13T09:03:33;103.10;2201.60
70593;DHT22;58294;42.988;20.338;2022-12-13T09:06:10;103.10;2201.60
70593;DHT22;58294;42.988;20.338;2022-12-13T09:08:37;103.20;2227.20
70593;DHT22;58294;42.988;20.338;2022-12-13T09:11:03;103.20;2176.00
70593;DHT22;58294;42.988;20.338;2022-12-13T09:13:31;103.10;2176.00
70593;DHT22;58294;42.988;20.338;2022-12-13T09:15:58;103.20;2227.20
70593;DHT22;58294;42.988;20.338;2022-12-13T09:18:24;103.20;2176.00
70593;DHT22;58294;42.988;20.338;2022-12-13T09:20:50;103.10;2201.60
70593;DHT22;58294;42.988;20.338;2022-12-13T09:23:16;103.20;2227.20
70593;DHT22;58294;42.988;20.338;2022-12-13T09:25:42;103.30;2227.20
70593;DHT22;58294;42.988;20.338;2022-12-13T09:28:08;128.00;2252.80
70593;DHT22;58294;42.988;20.338;2022-12-13T09:30:36;128.10;2252.80
70593;DHT22;58294;42.988;20.338;2022-12-13T09:33:02;128.10;2124.80
70593;DHT22;58294;42.988;20.338;2022-12-13T09:35:28;128.00;2227.20
70593;DHT22;58294;42.988;20.338;2022-12-13T09:37:55;128.00;2099.20
70593;DHT22;58294;42.988;20.338;2022-12-13T09:40:25;103.30;2048.00
70593;DHT22;58294;42.988;20.338;2022-12-13T09:42:53;103.20;2176.00
70593;DHT22;58294;42.988;20.338;2022-12-13T09:45:20;103.30;2227.20
70593;DHT22;58294;42.988;20.338;2022-12-13T09:47:47;128.00;2201.60
70593;DHT22;58294;42.988;20.338;2022-12-13T09:50:32;103.30;2201.60
70593;DHT22;58294;42.988;20.338;2022-12-13T09:52:59;128.00;2252.80
70593;DHT22;58294;42.988;20.338;2022-12-13T09:55:31;128.00;2252.80
70593;DHT22;58294;42.988;20.338;2022-12-13T09:58:00;128.10;2227.20
70593;DHT22;58294;42.988;20.338;2022-12-13T10:00:34;128.10;2201.60
70593;DHT22;58294;42.988;20.338;2022-12-13T10:03:00;128.10;2227.20
70593;DHT22;58294;42.988;20.338;2022-12-13T10:05:40;128.10;2150.40
70593;DHT22;58294;42.988;20.338;2022-12-13T10:08:14;128.00;2150.40
70593;DHT22;58294;42.988;20.338;2022-12-13T10:10:41;128.00;2201.60
70593;DHT22;58294;42.988;20.338;2022-12-13T10:13:20;128.10;2227.20
70593;DHT22;58294;42.988;20.338;2022-12-13T10:15:56;128.10;2201.60
70593;DHT22;58294;42.988;20.338;2022-12-13T10:18:38;128.20;2176.00
70593;DHT22;58294;42.988;20.338;2022-12-13T10:21:19;128.20;2201.60
70593;DHT22;58294;42.988;20.338;2022-12-13T10:23:46;128.20;2227.20
70593;DHT22;58294;42.988;20.338;2022-12-13T10:26:13;128.30;2227.20
70593;DHT22;58294;42.988;20.338;2022-12-13T10:28:39;128.30;2150.40
70593;DHT22;58294;42.988;20.338;2022-12-13T10:31:05;128.30;2201.60
70593;DHT22;58294;42.988;20.338;2022-12-13T10:33:53;128.30;2124.80
70593;DHT22;58294;42.988;20.338;2022-12-13T10:36:34;128.20;2048.00
70593;DHT22;58294;42.988;20.338;2022-12-13T10:39:03;128.10;2150.40
70593;DHT22;58294;42.988;20.338;2022-12-13T10:41:33;128.10;2176.00
70593;DHT22;58294;42.988;20.338;2022-12-13T10:44:07;128.10;2073.60
70593;DHT22;58294;42.988;20.338;2022-12-13T10:46:33;128.00;2150.40
70593;DHT22;58294;42.988;20.338;2022-12-13T10:48:59;128.00;2150.40
70593;DHT22;58294;42.988;20.338;2022-12-13T10:51:25;103.30;2150.40
70593;DHT22;58294;42.988;20.338;2022-12-13T10:53:57;103.30;2150.40
70593;DHT22;58294;42.988;20.338;2022-12-13T10:56:39;128.00;2176.00
70593;DHT22;58294;42.988;20.338;2022-12-13T11:01:46;128.10;2252.80
70593;DHT22;58294;42.988;20.338;2022-12-13T11:04:44;128.10;2150.40
70593;DHT22;58294;42.988;20.338;2022-12-13T11:07:26;128.10;2227.20
70593;DHT22;58294;42.988;20.338;2022-12-13T11:09:52;128.20;2227.20
70593;DHT22;58294;42.988;20.338;2022-12-13T11:12:21;128.30;2227.20
70593;DHT22;58294;42.988;20.338;2022-12-13T11:15:03;128.30;2176.00
70593;DHT22;58294;42.988;20.338;2022-12-13T11:17:32;128.20;2150.40
70593;DHT22;58294;42.988;20.338;2022-12-13T11:20:06;128.20;2150.40
70593;DHT22;58294;42.988;20.338;2022-12-13T11:22:40;128.20;2150.40
70593;DHT22;58294;42.988;20.338;2022-12-13T11:25:27;128.10;2099.20
70593;DHT22;58294;42.988;20.338;2022-12-13T11:39:31;103.30;2099.20
70593;DHT22;58294;42.988;20.338;2022-12-13T11:42:20;103.30;2124.80
70593;DHT22;58294;42.988;20.338;2022-12-13T11:45:09;103.30;2124.80
70593;DHT22;58294;42.988;20.338;2022-12-13T11:50:22;128.00;2150.40
70593;DHT22;58294;42.988;20.338;2022-12-13T11:52:56;103.30;2124.80
70593;DHT22;58294;42.988;20.338;2022-12-13T11:58:11;103.20;2099.20
70593;DHT22;58294;42.988;20.338;2022-12-13T12:00:39;103.20;2150.40
70593;DHT22;58294;42.988;20.338;2022-12-13T12:03:20;103.20;2150.40
70593;DHT22;58294;42.988;20.338;2022-12-13T12:05:59;103.20;2176.00
70593;DHT22;58294;42.988;20.338;2022-12-13T12:08:34;103.30;2176.00
70593;DHT22;58294;42.988;20.338;2022-12-13T12:11:13;128.00;2201.60
70593;DHT22;58294;42.988;20.338;2022-12-13T12:13:54;128.00;2201.60
70593;DHT22;58294;42.988;20.338;2022-12-13T12:16:33;128.10;2201.60
70593;DHT22;58294;42.988;20.338;2022-12-13T12:19:00;128.20;2201.60
70593;DHT22;58294;42.988;20.338;2022-12-13T12:21:55;128.20;2150.40
70593;DHT22;58294;42.988;20.338;2022-12-13T12:39:08;128.20;2150.40
70593;DHT22;58294;42.988;20.338;2022-12-13T13:00:51;128.20;2176.00
70593;DHT22;58294;42.988;20.338;2022-12-13T13:03:24;128.20;2124.80
70593;DHT22;58294;42.988;20.338;2022-12-13T13:08:53;128.20;2150.40
70593;DHT22;58294;42.988;20.338;2022-12-13T13:11:24;128.20;2124.80
70593;DHT22;58294;42.988;20.338;2022-12-13T13:16:33;128.30;2176.00
70593;DHT22;58294;42.988;20.338;2022-12-13T13:21:47;128.20;2099.20
70593;DHT22;58294;42.988;20.338;2022-12-13T13:24:27;128.10;2124.80
70593;DHT22;58294;42.988;20.338;2022-12-13T13:26:55;128.10;2176.00
70593;DHT22;58294;42.988;20.338;2022-12-13T13:32:02;128.00;2073.60
70593;DHT22;58294;42.988;20.338;2022-12-13T13:36:57;103.20;2048.00
70593;DHT22;58294;42.988;20.338;2022-12-13T13:42:27;103.10;2124.80
70593;DHT22;58294;42.988;20.338;2022-12-13T13:45:18;103.20;2176.00
70593;DHT22;58294;42.988;20.338;2022-12-13T13:53:40;103.20;2124.80
70593;DHT22;58294;42.988;20.338;2022-12-13T14:01:58;103.30;2150.40
70593;DHT22;58294;42.988;20.338;2022-12-13T14:27:38;103.30;2150.40
70593;DHT22;58294;42.988;20.338;2022-12-13T14:30:09;103.30;2150.40
70593;DHT22;58294;42.988;20.338;2022-12-13T14:32:38;103.30;2124.80
70593;DHT22;58294;42.988;20.338;2022-12-13T14:35:04;103.30;2124.80
70593;DHT22;58294;42.988;20.338;2022-12-13T14:37:32;103.30;2099.20
70593;DHT22;58294;42.988;20.338;2022-12-13T14:39:59;103.20;2124.80
70593;DHT22;58294;42.988;20.338;2022-12-13T14:42:30;103.30;2150.40
70593;DHT22;58294;42.988;20.338;2022-12-13T14:45:34;103.30;2099.20
70593;DHT22;58294;42.988;20.338;2022-12-13T14:47:55;103.20;2073.60
70593;DHT22;58294;42.988;20.338;2022-12-13T14:50:27;103.10;2150.40
70593;DHT22;58294;42.988;20.338;2022-12-13T14:52:54;103.10;2150.40
70593;DHT22;58294;42.988;20.338;2022-12-13T14:55:27;103.20;2176.00
70593;DHT22;58294;42.988;20.338;2022-12-13T14:57:55;103.10;2124.80
70593;DHT22;58294;42.988;20.338;2022-12-13T15:00:33;103.10;2124.80
70593;DHT22;58294;42.988;20.338;2022-12-13T15:03:02;103.10;2150.40
70593;DHT22;58294;42.988;20.338;2022-12-13T15:05:42;103.20;2176.00
70593;DHT22;58294;42.988;20.338;2022-12-13T15:08:15;103.20;2150.40
70593;DHT22;58294;42.988;20.338;2022-12-13T15:10:48;103.20;2124.80
70593;DHT22;58294;42.988;20.338;2022-12-13T15:13:24;103.10;2150.40
70593;DHT22;58294;42.988;20.338;2022-12-13T15:15:56;103.10;2176.00
70593;DHT22;58294;42.988;20.338;2022-12-13T15:18:25;103.20;2201.60
70593;DHT22;58294;42.988;20.338;2022-12-13T15:20:54;103.20;2150.40
70593;DHT22;58294;42.988;20.338;2022-12-13T15:23:25;103.20;2150.40
70593;DHT22;58294;42.988;20.338;2022-12-13T15:26:00;103.20;2150.40
70593;DHT22;58294;42.988;20.338;2022-12-13T15:28:30;103.20;2201.60
70593;DHT22;58294;42.988;20.338;2022-12-13T15:30:59;103.30;2201.60
70593;DHT22;58294;42.988;20.338;2022-12-13T15:33:27;103.30;2150.40
70593;DHT22;58294;42.988;20.338;2022-12-13T15:36:21;103.30;2150.40
70593;DHT22;58294;42.988;20.338;2022-12-13T15:43:55;103.30;2150.40
70593;DHT22;58294;42.988;20.338;2022-12-13T15:46:26;103.20;2150.40
70593;DHT22;58294;42.988;20.338;2022-12-13T15:48:54;103.20;2150.40
70593;DHT22;58294;42.988;20.338;2022-12-13T15:51:22;103.30;2150.40
70593;DHT22;58294;42.988;20.338;2022-12-13T15:59:01;103.30;2124.80
70593;DHT22;58294;42.988;20.338;2022-12-13T16:01:37;103.20;2099.20
70593;DHT22;58294;42.988;20.338;2022-12-13T16:04:04;103.20;2150.40
70593;DHT22;58294;42.988;20.338;2022-12-13T16:06:32;103.20;2150.40
70593;DHT22;58294;42.988;20.338;2022-12-13T16:09:03;103.20;2150.40
70593;DHT22;58294;42.988;20.338;2022-12-13T16:11:36;103.20;2150.40
70593;DHT22;58294;42.988;20.338;2022-12-13T16:17:24;103.20;2150.40
70593;DHT22;58294;42.988;20.338;2022-12-13T16:19:52;103.10;2124.80
70593;DHT22;58294;42.988;20.338;2022-12-13T16:22:18;103.10;2150.40
70593;DHT22;58294;42.988;20.338;2022-12-13T16:24:47;103.10;2124.80
70593;DHT22;58294;42.988;20.338;2022-12-13T16:27:13;103.00;2150.40
70593;DHT22;58294;42.988;20.338;2022-12-13T16:29:39;103.00;2176.00
70593;DHT22;58294;42.988;20.338;2022-12-13T16:32:05;103.00;2150.40
70593;DHT22;58294;42.988;20.338;2022-12-13T16:34:31;103.00;2150.40
70593;DHT22;58294;42.988;20.338;2022-12-13T16:36:57;103.10;2176.00
70593;DHT22;58294;42.988;20.338;2022-12-13T16:39:26;103.10;2201.60
70593;DHT22;58294;42.988;20.338;2022-12-13T16:41:52;103.10;2201.60
70593;DHT22;58294;42.988;20.338;2022-12-13T16:44:35;103.20;2201.60
70593;DHT22;58294;42.988;20.338;2022-12-13T16:47:07;103.20;2176.00
70593;DHT22;58294;42.988;20.338;2022-12-13T16:49:33;103.20;2176.00
70593;DHT22;58294;42.988;20.338;2022-12-13T16:51:58;103.20;2176.00
70593;DHT22;58294;42.988;20.338;2022-12-13T16:54:25;103.10;2176.00
70593;DHT22;58294;42.988;20.338;2022-12-13T16:56:52;103.10;2176.00
70593;DHT22;58294;42.988;20.338;2022-12-13T16:59:23;103.10;2176.00
70593;DHT22;58294;42.988;20.338;2022-12-13T17:01:49;103.10;2201.60
70593;DHT22;58294;42.988;20.338;2022-12-13T17:04:18;103.10;2176.00
70593;DHT22;58294;42.988;20.338;2022-12-13T17:06:44;103.10;2176.00
70593;DHT22;58294;42.988;20.338;2022-12-13T17:09:10;103.10;2176.00
70593;DHT22;58294;42.988;20.338;2022-12-13T17:11:36;103.10;2176.00
70593;DHT22;58294;42.988;20.338;2022-12-13T17:14:03;103.00;2150.40